メインページ
METAR-TAF:

METAR-TAF

空港 :

美保飛行場, 日本

緯度: 35-29N, 経度: 133-15E, 海抜: 6m

現時点の気象観測

当レポートは44分前の08:00(UTC)に作成
北東の風 9kt
気温 27°C
湿度 54%
気圧 1007 hPa
視程10km以上
高度3000ftの雲はほとんどない
高度5000ftの千切れ雲あり

METAR: RJOH 200800Z 04009KT 9999 FEW030 BKN050 27/17 Q1007

時間: 17:44 (08:44 UTC)

予報

当レポートは3時間35分前の05:09(UTC)に作成
予報は20日の 06時(UTC)から 21日の 12時(UTC)まで有効
の風 10kt
視程10km以上
高度3000ftの雲はほとんどない
高度5000ftの雲は散在している

TAF: RJOH 200509Z 2006/2112 09010KT 9999 FEW030 SCT050

4,000以上の空港の気象観測と天気予報(METAR報とTAF報)

利用可能な観測所は地図上に黄色い丸と赤い丸で示す。

丸の上にカーソルを重ねると観測所名を参照できる。

次にクリックすると気象観測と天気予報を参照できる。

マップの切り替え:黒色「×」印の緑ボタンをクリックして拡大、「-」印の緑ボタンをクリックして縮小、緑色の三角印をクリックして隣りの地図に切り替え


METAR-TAF: